Detall de PIREP

Printer-friendly versionPDF version

[2016/01/24 10:20:00]
Flight IATA:CT3106
Pilot Number:012
Company ICAO:CAT
Aircraft Type:B738/F
PAX:160
Departing Airport: LIEA
Destination Airport: LEVC
Alternate Airport:LEPA
Online: VATSIM
Route:SUPUX UZ924 RIPAL UM603 CDP UN733 ARGOR
Flight Level:F350
No Slew and time accel
No pause
Crash detect
Detect pilot in Cockpit between each 30 and 45 minutes
10:20 Zero fuel Weight: 129937 Lbs, Fuel Weight: 16164 Lbs
10:20 VATSIM:LIEA 240950Z 11005KT 060V160 CAVOK 13/10 Q1036
10:20 VATSIM:LEVC 241000Z 00000KT 1200 R30/P2000 BR OVC002 12/11 Q1035 BECMG 3000 BR
10:21 Parking Brakes off
10:26 Take-off
10:26 Take off Weight: 145524 Lbs
10:26 Wind: 105º @ 005 Knots Heading: 204º
10:26 POS N40º 37´ 34´´ E008º 17´ 14´´
10:26 Gear Up: 166 Knots
10:26 Flaps:3 at 166 Knots
10:26 Flaps:2 at 204 Knots
10:27 Flaps:1 at 210 Knots
10:27 Flaps:0 at 209 Knots
10:41 Wind:339º@034 Knots Heading: 263º Ground Speed: 457 Knots Altitude 31007 ft
10:43 TOC
10:43 Fuel Weight: 11881 Lb
10:56 Wind:329º@025 Knots Heading: 257º Ground Speed: 452 Knots Altitude 35643 ft
11:11 Wind:337º@025 Knots Heading: 269º Ground Speed: 451 Knots Altitude 35649 ft
11:12 TOD
11:12 Fuel Weight: 9068 Lb
11:26 Wind:247º@005 Knots Heading: 264º Ground Speed: 273 Knots Altitude 8605 ft
11:27 Flaps:1 at 211 Knots
11:29 Flaps:2 at 191 Knots
11:30 Flaps:3 at 178 Knots
11:32 Flaps:4 at 174 Knots
11:32 Flaps:5 at 159 Knots
11:33 Flaps:6 at 151 Knots
11:33 Gear Down: 180 Knots
11:34 Flaps:7 at 153 Knots
11:35 Flaps:8 at 152 Knots
11:39 TouchDown:Rate -199 ft/min Speed: 123 Knots
11:39 Flaps:3 at 67 Knots
11:39 Flaps:0 at 68 Knots
11:39 VATSIM:LEVC 241100Z 12003KT 080V160 3000 BR BKN007 14/12 Q1035 NOSIG
11:39 Land
11:39 Wind:123º@003 Knots
11:39 Heading: 114º
11:39 Flight Duration: 01:13
11:39 Landing Weight: 137334 Lbs
11:39 POS N39º 29´ 28´´ W000º 29´ 13´´
11:40 Parking brakes on
11:40 Block to Block Duration: 01:19
11:40 Final Fuel: 7299 Lbls
11:40 Spent Fuel: 8864 Lbls
11:40 Flight Length: 446 NM
11:40 TOD Land Length: 123 NM

Exportar CSV

Powered by Drupal - Modified by Danger4k